Kaprifol — 5BXX2 — position and weather

sailwx.info

Track history (hours):
 
Tides and Currents Weather Stations Pressure Air Temp Water Temp Dewpoint Dewpoint Depression Visibility Wind Speed Wind Dir Waves Ship Positions

Kaprifol

Last reported at 2014-Nov-25 22:28 UTC. Time now 2014-Nov-26 01:31 UTC.
Position N 55°45' E 010°48'.

Length 90 m; draft 5 m.

Type: Tanker. MMSI: 210445000.

Date/timePositionNaut miles runAvg speedWind from/ knotsBaromVisibWave heightAir tempDewpointWater temp
2014-Nov-25 22:28N 55°45' E 010°48'5110.4
2014-Nov-25 17:33N 56°29' E 011°36'38 9.4
2014-Nov-25 13:31N 57°07' E 011°38'1110.4
2014-Nov-25 12:26N 57°17' E 011°32'910.3
2014-Nov-25 11:34N 57°26' E 011°26'10 9.9
2014-Nov-25 10:33N 57°33' E 011°13'1010.2
2014-Nov-25 09:33N 57°40' E 010°59'1110.7
2014-Nov-25 08:33N 57°47' E 010°43'15410.2
2014-Nov-24 17:28N 58°01' E 005°55'2010.5
2014-Nov-24 15:33N 58°14' E 005°26'1010.6
2014-Nov-24 14:33N 58°21' E 005°12'337 8.0
2014-Nov-22 20:14N 63°36' E 009°16'8 9.5
2014-Nov-22 19:22N 63°44' E 009°23'4 0.2
2014-Nov-22 00:13N 63°44' E 009°33'  
2014-Nov-18 19:32N 54°24' E 000°55'1010.3
2014-Nov-18 18:33N 54°15' E 000°51'1310.2
2014-Nov-18 17:17N 54°02' E 000°46'7 9.8
2014-Nov-18 16:33N 53°55' E 000°45'10 9.4
2014-Nov-18 15:32N 53°45' E 000°43'11 9.1
2014-Nov-18 14:18N 53°34' E 000°41'17 9.2
2014-Nov-18 12:29N 53°17' E 000°39'  
2014-Nov-16 02:34N 53°05' E 001°17'10 9.5
2014-Nov-16 01:33N 53°07' E 001°32'9 9.3
2014-Nov-16 00:34N 53°07' E 001°48'  
Track history (hours):
 
Tides and Currents Weather Stations Pressure Air Temp Water Temp Dewpoint Dewpoint Depression Visibility Wind Speed Wind Dir Waves Ship Positions

Kaprifol

Last reported at 2014-Nov-25 22:28 UTC. Time now 2014-Nov-26 01:31 UTC.
Position N 55°45' E 010°48'.

Length 90 m; draft 5 m.

Type: Tanker. MMSI: 210445000.

Date/timePositionNaut miles runAvg speedWind from/ knotsBaromVisibWave heightAir tempDewpointWater temp
2014-Nov-25 22:28N 55°45' E 010°48'5110.4
2014-Nov-25 17:33N 56°29' E 011°36'38 9.4
2014-Nov-25 13:31N 57°07' E 011°38'1110.4
2014-Nov-25 12:26N 57°17' E 011°32'910.3
2014-Nov-25 11:34N 57°26' E 011°26'10 9.9
2014-Nov-25 10:33N 57°33' E 011°13'1010.2
2014-Nov-25 09:33N 57°40' E 010°59'1110.7
2014-Nov-25 08:33N 57°47' E 010°43'15410.2
2014-Nov-24 17:28N 58°01' E 005°55'2010.5
2014-Nov-24 15:33N 58°14' E 005°26'1010.6
2014-Nov-24 14:33N 58°21' E 005°12'337 8.0
2014-Nov-22 20:14N 63°36' E 009°16'8 9.5
2014-Nov-22 19:22N 63°44' E 009°23'4 0.2
2014-Nov-22 00:13N 63°44' E 009°33'  
2014-Nov-18 19:32N 54°24' E 000°55'1010.3
2014-Nov-18 18:33N 54°15' E 000°51'1310.2
2014-Nov-18 17:17N 54°02' E 000°46'7 9.8
2014-Nov-18 16:33N 53°55' E 000°45'10 9.4
2014-Nov-18 15:32N 53°45' E 000°43'11 9.1
2014-Nov-18 14:18N 53°34' E 000°41'17 9.2
2014-Nov-18 12:29N 53°17' E 000°39'  
2014-Nov-16 02:34N 53°05' E 001°17'10 9.5
2014-Nov-16 01:33N 53°07' E 001°32'9 9.3
2014-Nov-16 00:34N 53°07' E 001°48'  

Dump ship's entire track history